createdAt,value
2022-09-26T00:01:30.210Z,3.90
2022-09-26T00:04:02.470Z,3.42
2022-09-26T00:06:29.166Z,3.08
2022-09-26T00:08:56.346Z,3.17
2022-09-26T00:11:31.958Z,3.15
2022-09-26T00:14:01.254Z,3.13
2022-09-26T00:16:28.629Z,2.80
2022-09-26T00:18:57.753Z,3.28
2022-09-26T00:21:24.682Z,2.80
2022-09-26T00:23:51.544Z,2.65
2022-09-26T00:26:20.029Z,3.28
2022-09-26T00:28:46.845Z,3.55
2022-09-26T00:31:25.464Z,3.20
2022-09-26T00:33:52.349Z,3.50
2022-09-26T00:36:19.173Z,3.20
2022-09-26T00:38:46.323Z,3.72
2022-09-26T00:41:13.492Z,3.88
2022-09-26T00:43:44.072Z,3.80
2022-09-26T00:46:38.211Z,3.78
2022-09-26T00:49:07.634Z,3.60
2022-09-26T00:51:38.938Z,3.08
2022-09-26T00:54:11.075Z,3.83
2022-09-26T00:56:39.507Z,2.72
2022-09-26T00:59:22.240Z,3.33
2022-09-26T01:01:51.104Z,2.83
2022-09-26T01:04:17.999Z,3.13
2022-09-26T01:06:45.546Z,3.53
2022-09-26T01:09:14.111Z,2.78
2022-09-26T01:11:42.143Z,3.88
2022-09-26T01:14:10.607Z,3.17
2022-09-26T01:16:39.094Z,3.10
2022-09-26T01:19:18.608Z,3.03
2022-09-26T01:21:57.388Z,3.05
2022-09-26T01:24:53.685Z,3.13
2022-09-26T01:27:35.620Z,3.03
2022-09-26T01:30:14.830Z,3.22
2022-09-26T01:33:21.841Z,3.25
2022-09-26T01:36:21.640Z,2.78
2022-09-26T01:39:03.190Z,2.78
2022-09-26T01:41:50.110Z,3.65
2022-09-26T01:44:28.718Z,3.35
2022-09-26T01:47:16.961Z,3.13
2022-09-26T01:50:01.715Z,4.70
2022-09-26T01:52:45.985Z,3.65
2022-09-26T01:55:17.920Z,3.33
2022-09-26T01:57:51.911Z,3.33
2022-09-26T02:00:19.599Z,3.78
2022-09-26T02:02:48.866Z,3.22
2022-09-26T02:05:25.046Z,3.70
2022-09-26T02:08:06.793Z,3.78
2022-09-26T02:10:43.185Z,3.88
2022-09-26T02:13:19.700Z,3.35
2022-09-26T02:15:52.544Z,3.50
2022-09-26T02:21:15.648Z,4.75
2022-09-26T02:23:42.284Z,3.42
2022-09-26T02:26:08.824Z,4.25
2022-09-26T02:28:35.429Z,4.03
2022-09-26T02:31:04.674Z,3.35
2022-09-26T02:33:31.578Z,3.20
2022-09-26T02:35:58.922Z,3.72
2022-09-26T02:38:31.034Z,3.83
2022-09-26T02:41:55.265Z,3.63
2022-09-26T02:44:38.737Z,3.35
2022-09-26T02:47:14.930Z,3.45
2022-09-26T02:50:08.259Z,3.80
2022-09-26T02:52:53.068Z,4.53
2022-09-26T02:58:22.801Z,3.55
2022-09-26T03:01:05.023Z,4.22
2022-09-26T03:03:50.360Z,3.38
2022-09-26T03:06:21.222Z,3.60
2022-09-26T03:08:49.312Z,4.05
2022-09-26T03:11:21.797Z,3.30
2022-09-26T03:13:52.031Z,4.40
2022-09-26T03:16:21.471Z,3.83
2022-09-26T03:18:54.484Z,3.90
2022-09-26T03:21:23.161Z,3.95
2022-09-26T03:23:50.732Z,3.83
2022-09-26T03:26:22.059Z,3.50
2022-09-26T03:28:58.964Z,3.25
2022-09-26T03:31:28.328Z,4.03
2022-09-26T03:33:59.223Z,3.60
2022-09-26T03:36:25.976Z,4.10
2022-09-26T03:38:52.835Z,4.18
2022-09-26T03:41:34.519Z,4.68
2022-09-26T03:44:17.440Z,4.35
2022-09-26T03:47:03.221Z,4.38
2022-09-26T03:49:30.842Z,4.25
2022-09-26T03:51:57.279Z,3.40
2022-09-26T03:54:24.230Z,3.95
2022-09-26T03:56:50.711Z,3.65
2022-09-26T03:59:17.261Z,3.58
2022-09-26T04:01:45.290Z,5.00
2022-09-26T04:04:15.110Z,4.05
2022-09-26T04:06:43.780Z,4.18
2022-09-26T04:09:15.898Z,6.03
2022-09-26T04:11:46.578Z,5.00
2022-09-26T04:14:13.157Z,5.53
2022-09-26T04:16:40.602Z,4.88
2022-09-26T04:19:15.329Z,5.50
2022-09-26T04:21:42.464Z,6.03
2022-09-26T04:24:14.431Z,5.22
2022-09-26T04:26:42.208Z,5.25
2022-09-26T04:29:09.330Z,5.30
2022-09-26T04:31:51.543Z,5.90
2022-09-26T04:34:27.256Z,5.13
2022-09-26T04:36:54.180Z,5.30
2022-09-26T04:39:21.009Z,4.45
2022-09-26T04:41:47.906Z,5.18
2022-09-26T04:44:15.109Z,4.97
2022-09-26T04:46:42.057Z,4.75
2022-09-26T04:49:09.497Z,5.32
2022-09-26T04:51:36.982Z,4.57
2022-09-26T04:54:04.117Z,4.78
2022-09-26T04:56:36.039Z,5.50
2022-09-26T04:59:05.347Z,5.15
2022-09-26T05:01:41.422Z,4.93
2022-09-26T05:04:13.340Z,5.85
2022-09-26T05:06:39.768Z,5.57
2022-09-26T05:09:10.439Z,6.00
2022-09-26T05:12:00.497Z,5.93
2022-09-26T05:14:27.094Z,6.22
2022-09-26T05:16:53.510Z,6.60
2022-09-26T05:19:21.199Z,7.22
2022-09-26T05:22:07.840Z,5.65
2022-09-26T05:24:53.092Z,6.18
2022-09-26T05:27:21.092Z,6.85
2022-09-26T05:29:47.569Z,6.15
2022-09-26T05:32:15.093Z,5.53
2022-09-26T05:34:42.449Z,5.28
2022-09-26T05:37:12.788Z,6.03
2022-09-26T05:39:58.157Z,6.47
2022-09-26T05:42:26.158Z,5.82
2022-09-26T05:44:53.368Z,5.90
2022-09-26T05:47:20.190Z,6.03
2022-09-26T05:49:47.893Z,5.60
2022-09-26T05:52:16.920Z,7.15
2022-09-26T05:54:43.276Z,6.47
2022-09-26T05:57:35.411Z,6.30
2022-09-26T06:00:02.388Z,5.20
2022-09-26T06:02:44.458Z,6.80
2022-09-26T06:05:23.324Z,7.93
2022-09-26T06:08:12.099Z,6.13
2022-09-26T06:10:43.384Z,6.28
2022-09-26T06:13:09.851Z,6.43
2022-09-26T06:15:45.768Z,6.45
2022-09-26T06:18:12.108Z,7.57
2022-09-26T06:20:38.928Z,6.50
2022-09-26T06:23:05.530Z,5.85
2022-09-26T06:25:33.911Z,6.43
2022-09-26T06:28:02.155Z,5.40
2022-09-26T06:30:29.975Z,6.70
2022-09-26T06:33:03.832Z,6.45
2022-09-26T06:35:39.162Z,7.18
2022-09-26T06:38:22.237Z,6.32
2022-09-26T06:40:52.813Z,7.15
2022-09-26T06:43:19.603Z,6.80
2022-09-26T06:46:11.576Z,7.15
2022-09-26T06:49:01.773Z,6.38
2022-09-26T06:51:50.999Z,7.75
2022-09-26T06:54:17.821Z,7.00
2022-09-26T06:56:44.331Z,6.88
2022-09-26T06:59:10.846Z,6.53
2022-09-26T07:01:46.198Z,7.78
2022-09-26T07:04:31.873Z,8.23
2022-09-26T07:07:16.970Z,8.95
2022-09-26T07:09:43.426Z,8.30
2022-09-26T07:12:17.592Z,8.68
2022-09-26T07:14:44.004Z,8.18
2022-09-26T07:17:19.152Z,7.25
2022-09-26T07:20:05.519Z,8.20
2022-09-26T07:22:52.005Z,7.32
2022-09-26T07:25:18.377Z,7.00
2022-09-26T07:27:49.856Z,7.30
2022-09-26T07:30:16.415Z,6.75
2022-09-26T07:33:02.956Z,7.43
2022-09-26T07:35:36.592Z,6.90
2022-09-26T07:38:04.974Z,7.22
2022-09-26T07:40:32.044Z,8.07
2022-09-26T07:48:57.538Z,6.68
2022-09-26T07:54:14.318Z,6.93
2022-09-26T07:57:04.861Z,5.78
2022-09-26T07:59:40.696Z,7.20
2022-09-26T08:02:29.091Z,6.47
2022-09-26T08:05:00.761Z,7.32
2022-09-26T08:07:29.107Z,7.38
2022-09-26T08:10:03.055Z,7.95
2022-09-26T08:12:56.623Z,7.38
2022-09-26T08:15:56.020Z,7.28
2022-09-26T08:18:27.994Z,6.82
2022-09-26T08:20:54.474Z,6.30
2022-09-26T08:23:21.904Z,7.03
2022-09-26T08:26:08.292Z,7.20
2022-09-26T08:28:42.560Z,5.78
2022-09-26T08:31:09.098Z,5.95
2022-09-26T08:33:41.109Z,6.43
2022-09-26T08:36:10.228Z,5.80
2022-09-26T08:39:12.231Z,5.28
2022-09-26T08:42:28.470Z,6.38
2022-09-26T08:46:06.998Z,6.38
2022-09-26T08:48:58.558Z,6.00
2022-09-26T08:51:43.064Z,6.20
2022-09-26T08:54:17.400Z,6.53
2022-09-26T08:56:52.390Z,6.25
2022-09-26T08:59:36.723Z,5.20
2022-09-26T09:02:18.523Z,5.03
2022-09-26T09:05:20.969Z,4.95
2022-09-26T09:07:50.987Z,5.10
2022-09-26T09:10:22.614Z,5.47
2022-09-26T09:13:25.322Z,5.88
2022-09-26T09:16:16.283Z,4.90
2022-09-26T09:19:35.414Z,4.53
2022-09-26T09:22:32.241Z,4.53
2022-09-26T09:25:35.230Z,4.07
2022-09-26T09:28:10.303Z,4.00
2022-09-26T09:30:50.312Z,4.60
2022-09-26T09:33:49.248Z,4.53
2022-09-26T09:36:23.298Z,4.60
2022-09-26T09:39:30.971Z,4.20
2022-09-26T09:42:13.292Z,4.00
2022-09-26T09:45:12.326Z,3.65
2022-09-26T09:47:40.004Z,3.75
2022-09-26T09:50:19.917Z,3.15
2022-09-26T09:52:58.961Z,1.95
2022-09-26T09:55:42.406Z,1.88
2022-09-26T09:58:19.041Z,1.80
2022-09-26T10:00:55.634Z,2.13
2022-09-26T10:03:36.243Z,2.33
2022-09-26T10:06:04.926Z,1.75
2022-09-26T10:11:30.701Z,2.10
2022-09-26T10:14:04.594Z,2.72
2022-09-26T10:17:14.657Z,2.28
2022-09-26T10:19:50.112Z,2.00
2022-09-26T10:22:25.108Z,2.55
2022-09-26T10:25:18.259Z,1.98
2022-09-26T10:27:56.259Z,2.67
2022-09-26T10:30:31.744Z,2.30
2022-09-26T10:33:24.655Z,2.50
2022-09-26T10:36:19.540Z,2.80
2022-09-26T10:39:25.729Z,3.60
2022-09-26T10:41:59.038Z,2.65
2022-09-26T10:44:33.581Z,2.83
2022-09-26T10:47:08.606Z,3.03
2022-09-26T10:50:17.904Z,3.40
2022-09-26T10:53:08.290Z,3.50
2022-09-26T10:55:43.651Z,4.28
2022-09-26T10:58:18.013Z,3.00
2022-09-26T11:00:50.248Z,3.35
2022-09-26T11:03:40.159Z,3.40
2022-09-26T11:06:35.548Z,4.18
2022-09-26T11:09:20.348Z,3.78
2022-09-26T11:12:29.003Z,3.78
2022-09-26T11:15:08.856Z,3.08
2022-09-26T11:17:47.811Z,3.55
2022-09-26T11:20:27.439Z,3.75
2022-09-26T11:23:13.088Z,3.40
2022-09-26T11:26:33.910Z,3.85
2022-09-26T11:29:25.905Z,3.63
2022-09-26T11:32:06.058Z,4.07
2022-09-26T11:35:02.911Z,4.40
2022-09-26T11:38:09.145Z,4.22
2022-09-26T11:40:47.214Z,4.75
2022-09-26T11:43:30.050Z,3.65
2022-09-26T11:46:21.010Z,3.55
2022-09-26T11:49:32.255Z,3.45
2022-09-26T11:52:18.919Z,3.60
2022-09-26T11:54:56.831Z,4.53
2022-09-26T11:57:46.384Z,3.28
2022-09-26T12:00:28.977Z,3.72
2022-09-26T12:03:05.599Z,3.70
2022-09-26T12:05:56.232Z,3.28
2022-09-26T12:08:34.383Z,2.75
2022-09-26T12:11:16.458Z,3.08
2022-09-26T12:14:21.065Z,3.10
2022-09-26T12:16:58.634Z,2.90
2022-09-26T12:19:48.930Z,2.60
2022-09-26T12:22:38.519Z,3.03
2022-09-26T12:25:20.310Z,2.40
2022-09-26T12:27:49.594Z,2.15
2022-09-26T12:30:24.780Z,2.78
2022-09-26T12:33:15.838Z,2.85
2022-09-26T12:35:57.365Z,2.67
2022-09-26T12:38:42.538Z,2.40
2022-09-26T12:41:27.782Z,3.35
2022-09-26T12:44:13.673Z,2.65
2022-09-26T12:46:43.039Z,2.85
2022-09-26T12:49:28.535Z,2.55
2022-09-26T12:52:21.549Z,2.90
2022-09-26T12:55:12.425Z,2.60
2022-09-26T12:58:14.890Z,2.90
2022-09-26T13:00:54.159Z,2.70
2022-09-26T13:03:31.318Z,2.03
2022-09-26T13:06:18.973Z,2.15
2022-09-26T13:09:04.214Z,2.47
2022-09-26T13:11:48.953Z,2.65
2022-09-26T13:14:49.313Z,2.78
2022-09-26T13:17:18.474Z,2.30
2022-09-26T13:19:51.583Z,2.20
2022-09-26T13:22:27.513Z,2.15
2022-09-26T13:25:07.857Z,1.88
2022-09-26T13:27:51.287Z,1.92
2022-09-26T13:30:26.182Z,1.80
2022-09-26T13:33:10.597Z,2.00
2022-09-26T13:35:41.490Z,2.17
2022-09-26T13:38:09.058Z,2.22
2022-09-26T13:41:08.513Z,1.60
2022-09-26T13:44:04.599Z,2.00
2022-09-26T13:46:53.471Z,1.67
2022-09-26T13:49:33.811Z,2.15
2022-09-26T13:52:29.179Z,1.77
2022-09-26T13:55:03.209Z,1.88
2022-09-26T13:57:37.155Z,2.85
2022-09-26T14:00:29.896Z,2.00
2022-09-26T14:03:18.053Z,1.50
2022-09-26T14:05:44.563Z,1.88
2022-09-26T14:08:54.688Z,1.75
2022-09-26T14:11:29.676Z,2.75
2022-09-26T14:14:16.707Z,1.50
2022-09-26T14:16:54.700Z,1.48
2022-09-26T14:19:39.386Z,1.67
2022-09-26T14:22:25.686Z,1.88
2022-09-26T14:24:53.664Z,1.73
2022-09-26T14:27:36.102Z,1.25
2022-09-26T14:30:24.278Z,1.58
2022-09-26T14:32:58.940Z,1.40
2022-09-26T14:35:28.330Z,3.22
2022-09-26T14:38:12.489Z,1.70
2022-09-26T14:40:54.358Z,1.83
2022-09-26T14:43:24.709Z,1.55
2022-09-26T14:46:00.686Z,2.15
2022-09-26T14:48:38.526Z,2.33
2022-09-26T14:51:23.868Z,2.30
2022-09-26T14:53:50.351Z,1.77
2022-09-26T14:56:30.113Z,2.13
2022-09-26T14:59:24.279Z,1.98
2022-09-26T15:01:52.299Z,1.83
2022-09-26T15:04:22.059Z,1.92
2022-09-26T15:06:52.806Z,1.92
2022-09-26T15:09:48.965Z,2.13
2022-09-26T15:12:25.712Z,2.40
2022-09-26T15:15:24.046Z,2.10
2022-09-26T15:17:56.368Z,2.15
2022-09-26T15:20:25.367Z,1.73
2022-09-26T15:22:56.831Z,1.30
2022-09-26T15:25:30.559Z,2.03
2022-09-26T15:27:58.029Z,2.03
2022-09-26T15:30:32.922Z,1.60
2022-09-26T15:33:04.015Z,1.35
2022-09-26T15:35:31.908Z,1.92
2022-09-26T15:38:01.135Z,1.20
2022-09-26T15:40:30.044Z,1.70
2022-09-26T15:43:15.918Z,1.85
2022-09-26T15:45:46.413Z,1.63
2022-09-26T15:48:18.871Z,1.70
2022-09-26T15:50:52.249Z,1.60
2022-09-26T15:53:26.648Z,1.48
2022-09-26T15:56:03.029Z,1.83
2022-09-26T15:58:41.302Z,2.08
2022-09-26T16:01:08.523Z,1.80
2022-09-26T16:03:34.962Z,1.80
2022-09-26T16:06:02.766Z,2.58
2022-09-26T16:08:37.617Z,1.83
2022-09-26T16:11:07.915Z,1.60
2022-09-26T16:13:39.947Z,1.63
2022-09-26T16:16:16.136Z,1.63
2022-09-26T16:18:55.602Z,1.63
2022-09-26T16:21:33.586Z,1.30
2022-09-26T16:24:22.304Z,1.90
2022-09-26T16:26:50.437Z,3.17
2022-09-26T16:29:34.859Z,1.38
2022-09-26T16:32:04.152Z,1.52
2022-09-26T16:34:31.372Z,2.08
2022-09-26T16:36:58.523Z,1.58
2022-09-26T16:39:28.010Z,1.67
2022-09-26T16:42:01.889Z,1.77
2022-09-26T16:44:41.058Z,1.25
2022-09-26T16:47:40.001Z,1.50
2022-09-26T16:50:31.230Z,2.45
2022-09-26T16:52:57.861Z,1.98
2022-09-26T16:55:25.971Z,1.60
2022-09-26T16:57:56.254Z,1.75
2022-09-26T17:00:51.478Z,2.20
2022-09-26T17:03:24.758Z,1.90
2022-09-26T17:05:54.128Z,2.25
2022-09-26T17:08:21.817Z,1.48
2022-09-26T17:10:48.598Z,2.10
2022-09-26T17:13:23.544Z,2.30
2022-09-26T17:15:52.860Z,1.98
2022-09-26T17:18:23.014Z,2.00
2022-09-26T17:20:50.159Z,1.98
2022-09-26T17:23:38.796Z,1.92
2022-09-26T17:26:06.021Z,2.08
2022-09-26T17:28:42.441Z,2.20
2022-09-26T17:31:19.482Z,2.40
2022-09-26T17:33:49.183Z,2.05
2022-09-26T17:36:33.887Z,2.28
2022-09-26T17:39:02.297Z,2.65
2022-09-26T17:41:31.170Z,2.30
2022-09-26T17:44:00.850Z,2.10
2022-09-26T17:46:27.933Z,2.00
2022-09-26T17:48:55.242Z,2.20
2022-09-26T17:51:22.661Z,2.08
2022-09-26T17:53:52.302Z,2.00
2022-09-26T17:56:19.669Z,1.85
2022-09-26T17:58:47.795Z,1.90
2022-09-26T18:01:24.902Z,1.90
2022-09-26T18:03:55.501Z,2.15
2022-09-26T18:06:26.107Z,1.35
2022-09-26T18:08:54.835Z,1.80
2022-09-26T18:11:21.273Z,1.85
2022-09-26T18:13:54.545Z,2.20
2022-09-26T18:16:22.595Z,2.10
2022-09-26T18:18:49.988Z,2.20
2022-09-26T18:21:18.752Z,1.98
2022-09-26T18:23:56.814Z,3.63
2022-09-26T18:26:29.196Z,2.30
2022-09-26T18:28:57.836Z,3.10
2022-09-26T18:31:30.873Z,2.03
2022-09-26T18:36:26.101Z,1.70
2022-09-26T18:38:52.755Z,1.58
2022-09-26T18:41:24.796Z,1.60
2022-09-26T18:43:52.232Z,1.50
2022-09-26T18:46:19.311Z,2.53
2022-09-26T18:48:47.163Z,1.50
2022-09-26T18:51:14.098Z,1.55
2022-09-26T18:53:40.991Z,1.27
2022-09-26T18:56:27.708Z,1.13
2022-09-26T18:58:54.909Z,1.38
2022-09-26T19:01:27.686Z,1.20
2022-09-26T19:03:57.041Z,1.80
2022-09-26T19:06:51.296Z,1.55
2022-09-26T19:09:22.507Z,1.60
2022-09-26T19:11:48.976Z,1.30
2022-09-26T19:14:22.295Z,1.30
2022-09-26T19:16:50.395Z,1.38
2022-09-26T19:19:17.429Z,2.00
2022-09-26T19:21:47.519Z,1.50
2022-09-26T19:24:20.866Z,1.35
2022-09-26T19:26:53.128Z,1.52
2022-09-26T19:29:29.000Z,1.90
2022-09-26T19:31:57.232Z,2.08
2022-09-26T19:34:32.540Z,1.83
2022-09-26T19:37:01.247Z,1.73
2022-09-26T19:39:27.814Z,1.90
2022-09-26T19:41:54.234Z,1.58
2022-09-26T19:44:20.757Z,1.58
2022-09-26T19:46:47.465Z,2.42
2022-09-26T19:49:18.313Z,1.67
2022-09-26T19:51:45.103Z,1.98
2022-09-26T19:54:16.439Z,1.50
2022-09-26T19:56:44.177Z,1.83
2022-09-26T19:59:12.745Z,2.33
2022-09-26T20:01:41.489Z,1.70
2022-09-26T20:04:14.095Z,1.50
2022-09-26T20:06:40.667Z,1.70
2022-09-26T20:09:14.233Z,1.55
2022-09-26T20:11:40.698Z,1.83
2022-09-26T20:14:25.401Z,1.85
2022-09-26T20:16:55.225Z,1.38
2022-09-26T20:19:37.649Z,1.73
2022-09-26T20:22:07.366Z,1.63
2022-09-26T20:24:36.949Z,1.70
2022-09-26T20:27:07.286Z,2.00
2022-09-26T20:29:54.945Z,1.70
2022-09-26T20:32:21.406Z,1.75
2022-09-26T20:34:48.787Z,1.45
2022-09-26T20:37:15.591Z,1.60
2022-09-26T20:39:42.866Z,1.50
2022-09-26T20:42:16.127Z,1.95
2022-09-26T20:44:43.565Z,1.88
2022-09-26T20:47:16.925Z,1.77
2022-09-26T20:49:48.530Z,1.50
2022-09-26T20:52:21.033Z,1.60
2022-09-26T20:54:47.746Z,1.70
2022-09-26T20:57:17.205Z,1.63
2022-09-26T20:59:43.716Z,1.65
2022-09-26T21:02:32.110Z,1.88
2022-09-26T21:05:00.688Z,1.17
2022-09-26T21:07:32.141Z,1.55
2022-09-26T21:09:58.867Z,1.92
2022-09-26T21:12:25.377Z,1.20
2022-09-26T21:14:52.098Z,1.45
2022-09-26T21:17:24.414Z,1.60
2022-09-26T21:19:53.905Z,1.30
2022-09-26T21:22:53.193Z,1.30
2022-09-26T21:25:22.793Z,1.42
2022-09-26T21:27:53.314Z,1.10
2022-09-26T21:30:20.147Z,1.23
2022-09-26T21:32:50.358Z,1.80
2022-09-26T21:35:19.281Z,1.38
2022-09-26T21:37:49.081Z,0.90
2022-09-26T21:40:16.351Z,1.20
2022-09-26T21:42:49.203Z,1.65
2022-09-26T21:45:16.748Z,1.70
2022-09-26T21:47:43.213Z,1.10
2022-09-26T21:50:12.258Z,1.27
2022-09-26T21:52:45.666Z,1.52
2022-09-26T21:55:23.801Z,1.25
2022-09-26T21:57:53.043Z,1.05
2022-09-26T22:00:19.949Z,1.20
2022-09-26T22:02:46.434Z,1.08
2022-09-26T22:05:13.095Z,1.40
2022-09-26T22:07:39.549Z,1.08
2022-09-26T22:10:06.876Z,1.20
2022-09-26T22:12:33.812Z,1.13
2022-09-26T22:15:00.453Z,0.90
2022-09-26T22:17:27.265Z,0.93
2022-09-26T22:19:53.736Z,1.50
2022-09-26T22:22:21.538Z,1.17
2022-09-26T22:24:48.137Z,1.15
2022-09-26T22:27:14.594Z,1.55
2022-09-26T22:29:41.077Z,2.00
2022-09-26T22:32:07.998Z,1.33
2022-09-26T22:34:34.467Z,1.25
2022-09-26T22:37:00.861Z,1.00
2022-09-26T22:39:27.343Z,1.25
2022-09-26T22:41:53.768Z,1.05
2022-09-26T22:44:20.227Z,0.80
2022-09-26T22:46:46.625Z,1.00
2022-09-26T22:49:13.107Z,1.27
2022-09-26T22:51:39.693Z,0.75
2022-09-26T22:54:06.222Z,1.08
2022-09-26T22:56:32.615Z,1.02
2022-09-26T22:58:59.210Z,1.08
2022-09-26T23:01:27.794Z,0.90
2022-09-26T23:03:55.227Z,1.27
2022-09-26T23:06:23.037Z,1.00
2022-09-26T23:08:49.964Z,0.80
2022-09-26T23:11:18.260Z,0.90
2022-09-26T23:13:45.909Z,0.90
2022-09-26T23:16:17.503Z,1.00
2022-09-26T23:18:44.395Z,1.00
2022-09-26T23:21:12.101Z,1.15
2022-09-26T23:23:39.632Z,0.98
2022-09-26T23:26:06.902Z,1.33
2022-09-26T23:28:33.972Z,1.00
2022-09-26T23:31:07.910Z,0.90
2022-09-26T23:33:34.494Z,0.95
2022-09-26T23:36:01.296Z,0.98
2022-09-26T23:38:28.711Z,0.98
2022-09-26T23:40:55.680Z,0.90
2022-09-26T23:43:22.638Z,0.80
2022-09-26T23:45:49.665Z,0.80
2022-09-26T23:48:16.284Z,1.00
2022-09-26T23:50:44.270Z,0.80
2022-09-26T23:53:11.378Z,1.00
2022-09-26T23:55:37.854Z,0.70
2022-09-26T23:58:04.478Z,0.90
